Time;durP1;ratioP1;P1;durP2;ratioP2;P2;SDS_P1;SDS_P2;PMS_P1;PMS_P2;Temp;Humidity;BMP_temperature;BMP_pressure;BME280_temperature;BME280_humidity;BME280_pressure;Samples;Min_cycle;Max_cycle;Signal;HPM_P1;HPM_P2
2022/01/22 00:02:13;;;;;;;3.92;1.02;;;;;;;-2.22;66.96;100288.88;4477424;31;34876;-73
2022/01/22 00:05:00;;;;;;;2.05;0.90;;;;;;;-2.12;66.37;100289.28;4489911;31;34572;-72
2022/01/22 00:07:46;;;;;;;5.12;1.80;;;;;;;-2.30;67.07;100282.72;4488166;31;35000;-72
2022/01/22 00:10:35;;;;;;;3.22;0.80;;;;;;;-2.20;66.49;100289.50;4481955;31;35249;-73
2022/01/22 00:16:26;;;;;;;6.80;1.02;;;;;;;-2.01;65.82;100283.25;4490306;31;35443;-72
2022/01/22 00:19:12;;;;;;;2.22;1.30;;;;;;;-2.08;65.75;100287.81;4493281;31;34073;-72
2022/01/22 00:21:59;;;;;;;2.85;1.12;;;;;;;-2.28;65.90;100285.19;4478515;31;35562;-72
2022/01/22 00:24:49;;;;;;;4.20;1.20;;;;;;;-2.29;65.91;100283.56;4491144;31;35034;-71
2022/01/22 00:27:40;;;;;;;2.95;1.08;;;;;;;-2.31;65.86;100277.56;4492305;31;35242;-71
2022/01/22 00:30:26;;;;;;;2.60;1.17;;;;;;;-2.30;65.88;100280.03;4477060;31;34059;-72
2022/01/22 00:33:17;;;;;;;2.87;0.88;;;;;;;-2.34;66.23;100280.66;4477863;31;34585;-71
2022/01/22 00:36:03;;;;;;;2.65;0.85;;;;;;;-2.30;66.07;100280.03;4476014;31;33689;-72
2022/01/22 00:38:49;;;;;;;4.22;1.15;;;;;;;-2.38;66.22;100272.22;4490355;31;35572;-72
2022/01/22 00:41:36;;;;;;;4.20;1.08;;;;;;;-2.17;65.39;100271.13;4493961;31;34208;-72
2022/01/22 00:44:22;;;;;;;3.90;1.00;;;;;;;-2.22;65.79;100270.09;4479340;31;34568;-72
2022/01/22 00:47:09;;;;;;;4.10;1.42;;;;;;;-2.35;66.13;100262.94;4469697;31;34883;-72
2022/01/22 00:49:56;;;;;;;3.37;1.45;;;;;;;-2.32;65.96;100268.69;4491227;31;34851;-72
2022/01/22 00:52:44;;;;;;;4.78;1.02;;;;;;;-2.24;66.08;100261.44;4489208;31;34858;-72
2022/01/22 00:55:33;;;;;;;3.22;1.00;;;;;;;-2.14;65.80;100264.50;4487118;31;35520;-72
2022/01/22 00:58:20;;;;;;;5.03;1.17;;;;;;;-2.25;66.32;100260.59;4490260;31;35990;-72
2022/01/22 01:01:09;;;;;;;2.65;1.05;;;;;;;-2.22;66.16;100256.66;4479579;31;34526;-72
2022/01/22 01:04:01;;;;;;;4.85;1.12;;;;;;;-2.11;66.23;100250.66;4477720;31;34131;-72
2022/01/22 01:06:47;;;;;;;4.60;1.00;;;;;;;-2.15;66.01;100250.25;4482454;31;34577;-72
2022/01/22 01:09:38;;;;;;;2.87;1.00;;;;;;;-2.16;66.34;100243.25;4491660;31;35049;-72
2022/01/22 01:12:25;;;;;;;3.67;0.90;;;;;;;-2.12;66.35;100243.63;4490152;31;35563;-72
2022/01/22 01:15:38;;;;;;;5.12;1.20;;;;;;;-2.08;66.47;100220.69;4478653;31;34177;-73
2022/01/22 01:33:59;;;;;;;2.47;0.80;;;;;;;-1.96;66.21;100161.78;4490407;31;36021;-72
2022/01/22 01:36:47;;;;;;;1.62;0.85;;;;;;;-1.90;66.19;100156.34;4473823;32;33505;-73
2022/01/22 01:39:36;;;;;;;3.30;0.90;;;;;;;-1.91;66.42;100162.75;4473547;32;34070;-72
2022/01/22 01:42:46;;;;;;;4.57;1.00;;;;;;;-1.81;66.15;100149.66;4471243;32;34575;-72
2022/01/22 01:45:33;;;;;;;2.08;1.10;;;;;;;-1.83;66.53;100151.75;4474585;32;36019;-73
2022/01/22 01:48:25;;;;;;;1.98;0.80;;;;;;;-1.72;66.60;100136.78;4475627;32;35659;-73
2022/01/22 01:51:11;;;;;;;;;;;;;;;-1.67;66.41;100136.16;4473132;32;34216;-72
2022/01/22 01:54:08;;;;;;;4.85;1.05;;;;;;;-1.62;66.37;100122.88;4474506;32;34769;-73
2022/01/22 02:00:01;;;;;;;3.53;0.77;;;;;;;-1.60;66.62;100104.66;4466943;32;35604;-74
2022/01/22 02:02:50;;;;;;;5.47;2.12;;;;;;;-1.65;66.93;100096.44;4473827;32;34149;-73
2022/01/22 02:05:38;;;;;;;2.95;0.70;;;;;;;-1.63;66.44;100081.72;4476403;32;34627;-73
2022/01/22 02:08:25;;;;;;;2.53;0.60;;;;;;;-1.60;66.37;100075.09;4472485;32;35858;-73
2022/01/22 02:11:14;;;;;;;1.77;0.70;;;;;;;-1.57;65.70;100074.66;4470196;32;34659;-73
2022/01/22 02:26:10;;;;;;;1.90;0.77;;;;;;;-1.52;63.95;100050.63;4471358;32;34208;-72
2022/01/22 02:28:57;;;;;;;3.67;0.88;;;;;;;-1.48;63.64;100057.22;4474644;32;35575;-73
2022/01/22 02:32:25;;;;;;;3.75;0.88;;;;;;;-1.55;64.01;100043.00;4458089;32;35867;-73
2022/01/22 02:35:09;;;;;;;2.47;0.80;;;;;;;-1.60;64.22;100049.03;4476519;31;34593;-73
2022/01/22 02:38:04;;;;;;;2.10;0.65;;;;;;;-1.47;63.31;100049.97;4491517;31;34091;-72
2022/01/22 02:40:50;;;;;;;5.03;0.70;;;;;;;-1.38;62.89;100030.63;4475430;31;34618;-73
2022/01/22 02:43:36;;;;;;;1.15;0.47;;;;;;;-1.48;63.24;100018.75;4475462;31;34967;-72
2022/01/22 02:46:26;;;;;;;2.72;0.70;;;;;;;-1.46;63.55;100033.63;4487761;31;34468;-72
2022/01/22 02:49:12;;;;;;;2.45;0.77;;;;;;;-1.62;64.87;100031.53;4466430;31;35274;-73
2022/01/22 02:52:03;;;;;;;2.50;0.60;;;;;;;-1.55;64.97;100040.34;4488119;31;34680;-74
2022/01/22 02:54:50;;;;;;;1.95;0.90;;;;;;;-1.64;65.55;100037.09;4479429;31;35017;-73
2022/01/22 02:57:37;;;;;;;3.65;0.70;;;;;;;-1.65;65.21;100045.38;4477870;31;34649;-73
2022/01/22 03:00:26;;;;;;;1.60;0.82;;;;;;;-1.69;65.50;100044.19;4477223;31;34108;-74
2022/01/22 03:03:15;;;;;;;5.00;1.17;;;;;;;-1.62;65.61;100040.41;4474915;31;34666;-73
2022/01/22 03:06:02;;;;;;;1.77;0.70;;;;;;;-1.57;65.31;100031.66;4472858;31;34936;-74
2022/01/22 03:08:48;;;;;;;2.97;0.82;;;;;;;-1.74;66.27;100028.72;4489798;31;34581;-73
2022/01/22 03:11:44;;;;;;;6.07;0.90;;;;;;;-1.64;65.87;100012.09;4489996;31;34133;-73
2022/01/22 03:17:53;;;;;;;3.42;1.45;;;;;;;-1.65;66.51;100013.13;4484133;31;35996;-73
2022/01/22 03:29:52;;;;;;;2.12;1.15;;;;;;;-1.48;66.37;100003.47;4480651;31;35954;-72
2022/01/22 03:32:44;;;;;;;4.30;1.15;;;;;;;-1.36;66.00;100000.88;4490794;31;35316;-73
2022/01/22 03:35:34;;;;;;;5.28;0.90;;;;;;;-1.47;66.88;99996.22;4496233;31;33199;-73
2022/01/22 03:38:22;;;;;;;2.03;0.90;;;;;;;-1.45;66.92;100008.41;4480566;31;34234;-72
2022/01/22 03:41:08;;;;;;;2.78;0.90;;;;;;;-1.37;66.96;99997.34;4477446;31;34894;-73
2022/01/22 03:43:56;;;;;;;5.62;1.15;;;;;;;-1.33;67.25;100004.97;4477387;31;34835;-72
2022/01/22 03:46:42;;;;;;;3.37;1.20;;;;;;;-1.41;67.40;99993.47;4493974;31;34269;-73
2022/01/22 03:49:29;;;;;;;2.35;1.12;;;;;;;-1.61;68.28;99987.47;4489995;31;35555;-73
2022/01/22 03:52:17;;;;;;;5.03;1.20;;;;;;;-1.51;68.19;99968.94;4477807;31;34997;-74
2022/01/22 03:55:07;;;;;;;4.28;1.17;;;;;;;-1.40;68.46;99968.22;4481488;31;34256;-72
2022/01/22 03:58:05;;;;;;;4.45;1.20;;;;;;;-1.51;69.05;99977.00;4478764;31;35123;-73
2022/01/22 04:01:06;;;;;;;5.78;1.33;;;;;;;-1.60;70.62;99967.62;4489243;31;34560;-74
2022/01/22 04:04:01;;;;;;;4.57;1.33;;;;;;;-1.72;76.01;99980.16;4476181;31;34941;-72
2022/01/22 04:09:41;;;;;;;6.00;1.85;;;;;;;-2.23;88.43;99981.22;4493769;31;34942;-73
2022/01/22 04:12:41;;;;;;;6.07;2.03;;;;;;;-2.06;89.94;99979.63;4489720;31;35169;-73
2022/01/22 04:15:34;;;;;;;3.92;1.55;;;;;;;-2.24;92.13;99966.16;4473916;31;35913;-73
2022/01/22 04:27:34;;;;;;;6.65;2.53;;;;;;;-2.02;96.13;99972.78;4487314;31;36018;-73
2022/01/22 04:30:21;;;;;;;6.18;2.15;;;;;;;-2.21;98.84;99969.22;4476558;31;35499;-73
2022/01/22 04:33:08;;;;;;;6.62;2.45;;;;;;;-2.22;99.97;99974.81;4476948;31;33715;-73
2022/01/22 04:35:54;;;;;;;9.27;3.28;;;;;;;-2.51;100.00;99961.81;4477440;32;34562;-73
2022/01/22 04:38:40;;;;;;;8.05;3.80;;;;;;;-2.53;100.00;99963.91;4479674;31;34964;-73
2022/01/22 04:41:27;;;;;;;7.62;3.45;;;;;;;-2.68;100.00;99966.06;4465935;31;34487;-74
2022/01/22 04:44:14;;;;;;;9.73;3.72;;;;;;;-2.44;100.00;99956.41;4489832;31;33918;-73
2022/01/22 04:47:55;;;;;;;6.10;2.85;;;;;;;-2.56;100.00;99952.75;4492320;31;33267;-74
2022/01/22 04:55:58;;;;;;;8.20;3.58;;;;;;;-2.43;100.00;99946.50;4489856;31;34910;-74
2022/01/22 04:58:44;;;;;;;9.20;3.83;;;;;;;-2.23;100.00;99939.09;4476441;31;35232;-74
2022/01/22 05:01:30;;;;;;;11.07;4.62;;;;;;;-2.24;100.00;99933.97;4480242;31;35002;-74
2022/01/22 05:04:20;;;;;;;12.95;3.95;;;;;;;-2.22;100.00;99942.59;4479738;31;34370;-72
2022/01/22 05:07:07;;;;;;;10.23;4.05;;;;;;;-2.05;100.00;99944.53;4490751;31;33180;-73
2022/01/22 05:09:54;;;;;;;11.35;4.40;;;;;;;-2.20;100.00;99945.88;4491310;31;34422;-73
2022/01/22 05:12:41;;;;;;;13.27;5.90;;;;;;;-2.14;100.00;99939.63;4490416;31;36044;-73
2022/01/22 05:15:27;;;;;;;11.23;4.03;;;;;;;-2.15;100.00;99954.13;4490673;31;33497;-73
2022/01/22 05:18:14;;;;;;;11.90;4.15;;;;;;;-2.10;100.00;99944.34;4475744;31;34623;-73
2022/01/22 05:21:08;;;;;;;11.12;5.00;;;;;;;-2.01;100.00;99944.88;4489508;31;34715;-73
2022/01/22 05:24:03;;;;;;;13.07;4.10;;;;;;;-2.26;100.00;99945.72;4477105;31;34878;-73
2022/01/22 05:33:32;;;;;;;14.00;5.60;;;;;;;-2.05;100.00;99949.03;4484617;31;35140;-72
2022/01/22 05:39:00;;;;;;;13.35;5.80;;;;;;;-2.05;100.00;99951.72;4491600;31;34610;-72
2022/01/22 05:41:47;;;;;;;14.00;4.80;;;;;;;-2.19;100.00;99939.47;4469180;31;34429;-71
2022/01/22 05:44:35;;;;;;;9.80;4.37;;;;;;;-1.99;100.00;99937.44;4474837;31;35608;-71
2022/01/22 05:47:26;;;;;;;11.07;4.25;;;;;;;-1.68;100.00;99941.03;4487364;31;34900;-72
2022/01/22 05:50:27;;;;;;;18.05;6.12;;;;;;;-1.83;100.00;99928.78;4490236;31;34709;-71
2022/01/22 06:02:11;;;;;;;15.70;6.10;;;;;;;-1.93;100.00;99931.19;4489424;31;34605;-71
2022/01/22 06:04:58;;;;;;;14.82;5.60;;;;;;;-1.92;100.00;99943.56;4478338;31;35111;-71
2022/01/22 06:07:44;;;;;;;14.55;5.55;;;;;;;-1.87;100.00;99949.09;4488897;31;35183;-71
2022/01/22 06:10:34;;;;;;;13.20;5.60;;;;;;;-1.52;100.00;99956.56;4481659;31;35495;-71
2022/01/22 06:13:28;;;;;;;17.23;6.82;;;;;;;-1.82;100.00;99954.63;4464532;31;35503;-71
2022/01/22 06:16:17;;;;;;;16.48;5.95;;;;;;;-1.77;100.00;99950.44;4483802;31;35086;-71
2022/01/22 06:19:07;;;;;;;14.00;5.25;;;;;;;-1.86;100.00;99952.59;4485589;31;34552;-71
2022/01/22 06:21:54;;;;;;;10.05;3.40;;;;;;;-1.61;100.00;99947.19;4491325;31;34917;-71
2022/01/22 06:24:40;;;;;;;11.05;4.25;;;;;;;-1.57;100.00;99940.28;4472827;31;34685;-71
2022/01/22 06:27:26;;;;;;;5.90;2.72;;;;;;;-1.68;100.00;99960.69;4463488;31;35087;-71
2022/01/22 06:30:13;;;;;;;5.65;2.30;;;;;;;-1.54;100.00;99955.97;4472632;31;35192;-71
2022/01/22 06:33:00;;;;;;;5.03;2.08;;;;;;;-1.88;100.00;99960.03;4482295;31;35992;-71
2022/01/22 06:35:46;;;;;;;4.65;1.90;;;;;;;-1.83;100.00;99957.53;4483464;31;34781;-70
2022/01/22 06:38:35;;;;;;;4.85;2.08;;;;;;;-1.39;100.00;99966.38;4460010;31;33900;-71
2022/01/22 06:44:45;;;;;;;3.75;1.73;;;;;;;-1.51;100.00;99982.41;4462483;31;34610;-71
2022/01/22 06:47:35;;;;;;;4.97;2.10;;;;;;;-1.36;100.00;99985.56;4480009;31;34563;-71
2022/01/22 06:50:22;;;;;;;4.87;1.80;;;;;;;-1.69;100.00;99975.16;4486782;31;34139;-71
2022/01/22 06:53:14;;;;;;;;;;;;;;;-1.63;100.00;99981.50;4489842;31;34645;-72
2022/01/22 06:56:02;;;;;;;7.22;1.98;;;;;;;-1.28;100.00;99971.00;4485945;31;36002;-72
2022/01/22 06:58:51;;;;;;;5.70;2.15;;;;;;;-1.17;100.00;99961.31;4485073;31;34726;-71
2022/01/22 07:01:39;;;;;;;5.45;2.30;;;;;;;-1.61;100.00;99965.97;4493956;31;34030;-72
2022/01/22 07:04:26;;;;;;;5.87;2.90;;;;;;;-1.16;100.00;99963.81;4476090;31;34614;-72
2022/01/22 07:07:12;;;;;;;5.30;2.37;;;;;;;-1.43;100.00;99974.03;4477357;31;35828;-71
2022/01/22 07:09:58;;;;;;;8.23;2.72;;;;;;;-1.19;100.00;99980.38;4480870;31;35863;-72
2022/01/22 07:12:45;;;;;;;6.20;2.62;;;;;;;-1.14;100.00;99993.13;4495072;31;35037;-72
2022/01/22 07:15:34;;;;;;;7.07;2.85;;;;;;;-1.31;100.00;99986.72;4492585;31;34597;-72
2022/01/22 07:18:22;;;;;;;6.65;3.08;;;;;;;-1.02;100.00;99996.72;4489148;31;34678;-71
2022/01/22 07:21:14;;;;;;;5.40;2.47;;;;;;;-0.85;100.00;100006.84;4476113;31;34360;-72
2022/01/22 07:24:26;;;;;;;9.95;3.42;;;;;;;-1.14;100.00;100010.13;4477576;31;35445;-72
2022/01/22 07:27:13;;;;;;;;;;;;;;;-0.96;100.00;100011.97;4465977;31;34519;-72
2022/01/22 07:29:59;;;;;;;6.82;3.30;;;;;;;-1.35;100.00;100024.00;4475441;31;37902;-71
2022/01/22 07:32:46;;;;;;;9.45;4.40;;;;;;;-1.53;100.00;100022.12;4479612;31;34746;-72
2022/01/22 07:35:36;;;;;;;8.30;3.90;;;;;;;-1.76;100.00;100021.94;4489347;31;34083;-72
2022/01/22 07:38:23;;;;;;;9.20;4.07;;;;;;;-1.72;100.00;100023.13;4467067;31;34353;-72
2022/01/22 07:41:11;;;;;;;9.55;3.90;;;;;;;-1.66;100.00;100022.25;4479654;31;35983;-72
2022/01/22 07:44:01;;;;;;;8.63;3.95;;;;;;;-1.85;100.00;100019.53;4478170;31;34159;-72
2022/01/22 07:46:48;;;;;;;9.90;3.95;;;;;;;-1.81;100.00;100015.34;4489705;31;33983;-72
2022/01/22 07:49:40;;;;;;;10.25;3.83;;;;;;;-1.62;100.00;100016.22;4477088;31;34625;-71
2022/01/22 07:52:27;;;;;;;8.40;3.90;;;;;;;-1.55;100.00;100024.19;4487340;31;34717;-72
2022/01/22 07:55:16;;;;;;;11.88;4.15;;;;;;;-1.72;100.00;100018.59;4465555;31;35274;-72
2022/01/22 07:58:02;;;;;;;13.07;5.00;;;;;;;-1.56;100.00;100006.44;4476729;31;34234;-73
2022/01/22 08:00:49;;;;;;;8.98;3.25;;;;;;;-1.47;100.00;100004.28;4466626;31;34681;-73
2022/01/22 08:03:36;;;;;;;10.07;3.17;;;;;;;-1.22;100.00;99998.84;4492669;31;35099;-74
2022/01/22 08:06:42;;;;;;;8.35;3.45;;;;;;;-0.96;100.00;100006.59;4487344;31;34594;-73
2022/01/22 08:09:34;;;;;;;10.32;3.42;;;;;;;-1.10;100.00;100002.41;4477311;31;34177;-74
2022/01/22 08:12:23;;;;;;;6.07;2.95;;;;;;;-1.19;100.00;100001.91;4477540;31;35476;-74
2022/01/22 08:15:11;;;;;;;7.82;3.62;;;;;;;-1.04;100.00;100009.56;4489920;31;35014;-74
2022/01/22 08:18:00;;;;;;;7.28;3.12;;;;;;;-0.99;100.00;100001.66;4479210;31;34994;-74
2022/01/22 08:20:47;;;;;;;7.78;2.90;;;;;;;-0.98;100.00;100005.97;4486885;31;34543;-75
2022/01/22 08:23:37;;;;;;;5.78;2.45;;;;;;;-0.62;100.00;100012.34;4488189;31;34322;-74
2022/01/22 08:26:29;;;;;;;8.25;3.35;;;;;;;-0.73;100.00;100021.19;4486815;31;34414;-74
2022/01/22 08:29:18;;;;;;;8.57;2.92;;;;;;;-0.53;100.00;100020.94;4486776;31;34663;-75
2022/01/22 08:38:07;;;;;;;7.87;2.70;;;;;;;-0.35;97.71;100031.62;4477980;31;33833;-74
2022/01/22 08:40:54;;;;;;;7.95;3.65;;;;;;;-0.18;97.25;100047.94;4488886;31;35287;-74
2022/01/22 08:43:40;;;;;;;9.63;3.90;;;;;;;-0.44;96.56;100062.62;4478479;31;34139;-74
2022/01/22 08:46:30;;;;;;;6.57;2.55;;;;;;;-0.88;100.00;100061.09;4491090;31;35182;-74
2022/01/22 08:49:16;;;;;;;4.82;2.55;;;;;;;-0.35;97.94;100071.19;4485666;31;35948;-74
2022/01/22 08:52:09;;;;;;;5.75;2.40;;;;;;;-0.09;98.47;100070.81;4476056;31;35209;-74
2022/01/22 08:54:55;;;;;;;9.38;3.05;;;;;;;0.38;92.75;100070.91;4475021;31;34208;-74
2022/01/22 08:57:49;;;;;;;8.90;3.78;;;;;;;-0.40;94.43;100060.28;4485941;31;36065;-74
2022/01/22 09:00:39;;;;;;;8.98;4.32;;;;;;;-0.56;97.54;100064.44;4486741;31;34600;-74
2022/01/22 09:03:25;;;;;;;9.90;4.00;;;;;;;-0.52;96.38;100076.41;4478149;31;35469;-74
2022/01/22 09:06:12;;;;;;;15.35;3.95;;;;;;;-0.70;98.01;100079.94;4474740;31;35111;-74
2022/01/22 09:09:10;;;;;;;8.55;3.70;;;;;;;-0.54;97.11;100084.72;4467932;31;34249;-73
2022/01/22 09:11:57;;;;;;;7.03;3.90;;;;;;;-0.27;96.51;100079.78;4479217;31;34999;-73
2022/01/22 09:14:44;;;;;;;5.85;3.22;;;;;;;-0.62;95.74;100087.72;4489777;31;34644;-74
2022/01/22 09:17:31;;;;;;;5.15;2.50;;;;;;;-0.36;95.93;100100.00;4488280;31;35154;-74
2022/01/22 09:23:25;;;;;;;5.28;3.35;;;;;;;-0.65;96.12;100115.09;4451808;31;35564;-74
2022/01/22 09:26:11;;;;;;;8.35;3.35;;;;;;;-0.76;96.08;100116.66;4481304;31;34842;-76
2022/01/22 09:29:00;;;;;;;6.30;2.72;;;;;;;-0.34;95.62;100111.37;4484839;31;33396;-75
2022/01/22 09:31:47;;;;;;;4.47;2.58;;;;;;;-0.49;94.24;100111.75;4476173;31;34636;-75
2022/01/22 09:34:35;;;;;;;5.60;3.00;;;;;;;-0.63;94.06;100126.41;4486980;31;35959;-75
2022/01/22 09:37:22;;;;;;;4.70;2.37;;;;;;;-0.61;93.07;100129.72;4476402;31;34672;-76
2022/01/22 09:40:09;;;;;;;6.22;2.80;;;;;;;-0.60;92.75;100134.03;4487550;31;35082;-76
2022/01/22 09:42:59;;;;;;;6.40;2.60;;;;;;;-0.58;92.03;100136.53;4493616;31;34597;-76
2022/01/22 09:45:49;;;;;;;4.70;2.22;;;;;;;-0.62;93.86;100141.53;4479310;31;35009;-75
2022/01/22 09:48:45;;;;;;;6.93;3.35;;;;;;;-0.52;90.97;100125.66;4479724;31;34650;-74
2022/01/22 09:51:31;;;;;;;6.70;3.28;;;;;;;-0.56;90.84;100132.56;4478698;31;35019;-76
2022/01/22 09:54:18;;;;;;;6.57;2.58;;;;;;;-0.61;91.61;100135.09;4485409;31;34104;-76
2022/01/22 09:57:08;;;;;;;9.10;2.95;;;;;;;-0.69;92.75;100138.09;4450217;31;35932;-75
2022/01/22 09:59:55;;;;;;;5.87;2.45;;;;;;;-0.61;92.91;100129.72;4484005;31;35979;-76
2022/01/22 10:02:47;;;;;;;6.53;2.90;;;;;;;-0.44;91.41;100137.19;4482205;31;34104;-76
2022/01/22 10:05:39;;;;;;;7.00;3.58;;;;;;;-0.68;91.52;100135.19;4476322;31;36072;-76
2022/01/22 10:08:29;;;;;;;8.52;3.37;;;;;;;-0.70;91.76;100131.87;4463397;31;35782;-75
2022/01/22 10:11:25;;;;;;;6.25;3.00;;;;;;;-0.62;90.94;100133.47;4474595;31;34031;-76
2022/01/22 10:14:13;;;;;;;9.88;5.37;;;;;;;-0.66;90.44;100140.31;4486121;31;33760;-76
2022/01/22 10:16:59;;;;;;;9.60;4.05;;;;;;;-0.62;89.71;100136.16;4483887;31;35258;-74
2022/01/22 10:19:46;;;;;;;16.75;7.50;;;;;;;-0.54;90.86;100141.25;4464920;31;35872;-74
2022/01/22 10:22:55;;;;;;;35.97;17.75;;;;;;;-0.46;89.40;100151.72;4486416;31;34788;-76
2022/01/22 10:25:51;;;;;;;13.88;5.97;;;;;;;-0.44;89.21;100147.94;4489828;31;33351;-74
2022/01/22 10:28:45;;;;;;;8.43;3.37;;;;;;;-0.31;87.88;100155.87;4478187;31;35514;-73
2022/01/22 10:31:42;;;;;;;9.20;4.00;;;;;;;-0.35;86.95;100157.34;4490257;31;34871;-73
2022/01/22 10:34:37;;;;;;;8.23;3.65;;;;;;;-0.31;85.53;100155.87;4476627;31;35404;-74
2022/01/22 10:37:34;;;;;;;6.97;3.50;;;;;;;-0.10;85.14;100154.56;4497302;31;34169;-71
2022/01/22 10:40:30;;;;;;;8.02;3.33;;;;;;;0.09;84.01;100160.72;4473602;31;33899;-72
2022/01/22 10:43:25;;;;;;;6.90;3.00;;;;;;;-0.01;82.37;100156.69;4477887;31;34915;-73
2022/01/22 10:46:22;;;;;;;6.45;3.08;;;;;;;0.11;82.21;100156.72;4478856;31;34598;-72
2022/01/22 10:49:14;;;;;;;6.53;3.15;;;;;;;0.44;81.23;100155.41;4484651;31;34690;-74
2022/01/22 10:52:04;;;;;;;6.97;3.83;;;;;;;0.64;78.32;100171.28;4481190;31;35635;-73
2022/01/22 10:55:00;;;;;;;4.97;2.12;;;;;;;0.41;77.62;100164.78;4479228;31;35575;-74
2022/01/22 10:58:09;;;;;;;5.72;2.20;;;;;;;0.39;79.39;100169.56;4479145;31;34578;-73
2022/01/22 11:01:05;;;;;;;4.95;2.75;;;;;;;0.60;77.41;100170.09;4478315;31;34759;-74
2022/01/22 11:04:11;;;;;;;5.53;2.92;;;;;;;0.30;77.75;100181.75;4467654;31;34561;-73
2022/01/22 11:06:58;;;;;;;7.07;2.60;;;;;;;0.47;77.72;100189.19;4490349;31;35114;-75
2022/01/22 11:10:05;;;;;;;4.80;1.80;;;;;;;0.43;76.43;100175.34;4472044;31;35182;-75
2022/01/22 11:12:51;;;;;;;3.42;1.73;;;;;;;0.44;76.53;100191.28;4482299;31;34146;-75
2022/01/22 11:15:39;;;;;;;4.78;2.30;;;;;;;0.28;74.54;100200.00;4480490;31;34836;-75
2022/01/22 11:18:27;;;;;;;4.43;1.80;;;;;;;0.32;74.10;100195.81;4480351;31;35873;-75
2022/01/22 11:21:15;;;;;;;6.57;1.62;;;;;;;0.44;74.42;100187.75;4487822;31;35704;-75
2022/01/22 11:24:01;;;;;;;6.40;2.08;;;;;;;0.63;72.97;100202.00;4479924;31;35153;-74
2022/01/22 11:26:53;;;;;;;5.05;2.15;;;;;;;0.62;70.96;100197.63;4479046;31;35207;-74
2022/01/22 11:29:47;;;;;;;4.72;2.35;;;;;;;0.50;72.04;100203.00;4458803;31;35877;-75
2022/01/22 11:32:43;;;;;;;4.12;1.77;;;;;;;0.47;71.78;100208.88;4492947;31;35477;-77
2022/01/22 11:35:47;;;;;;;3.92;1.52;;;;;;;0.96;69.25;100211.41;4460287;31;35108;-75
2022/01/22 11:38:36;;;;;;;2.45;1.05;;;;;;;1.02;66.01;100218.56;4479726;31;34719;-74
2022/01/22 11:41:26;;;;;;;4.07;1.70;;;;;;;0.89;62.87;100217.75;4479607;31;36652;-74
2022/01/22 11:44:34;;;;;;;2.40;1.08;;;;;;;0.89;61.48;100217.75;4486687;31;35545;-73
2022/01/22 11:47:22;;;;;;;3.50;1.00;;;;;;;1.32;58.41;100216.59;4482198;31;34095;-73
2022/01/22 11:50:15;;;;;;;3.75;2.05;;;;;;;1.09;57.09;100227.37;4478039;31;35280;-71
2022/01/22 11:53:21;;;;;;;4.75;2.62;;;;;;;0.69;64.68;100222.66;4482921;31;35970;-71
2022/01/22 11:56:11;;;;;;;2.22;1.40;;;;;;;0.56;65.32;100225.53;4491844;31;35288;-73
2022/01/22 11:59:06;;;;;;;5.75;1.70;;;;;;;0.86;64.47;100215.53;4486151;31;35009;-72
2022/01/22 12:01:56;;;;;;;3.05;1.35;;;;;;;0.87;64.94;100224.44;4487431;31;35283;-72
2022/01/22 12:04:42;;;;;;;2.97;1.20;;;;;;;0.89;62.67;100235.81;4477595;31;35948;-72
2022/01/22 12:07:35;;;;;;;3.67;1.12;;;;;;;1.28;62.14;100244.28;4490454;31;34750;-72
2022/01/22 12:10:36;;;;;;;4.50;1.48;;;;;;;1.23;61.43;100242.28;4478692;31;35081;-73
2022/01/22 12:16:44;;;;;;;3.08;1.40;;;;;;;1.23;59.32;100234.19;4479250;31;34900;-73
2022/01/22 12:19:47;;;;;;;5.43;2.03;;;;;;;1.86;58.49;100227.19;4484050;31;34935;-73
2022/01/22 12:22:33;;;;;;;3.03;1.20;;;;;;;1.26;57.53;100233.72;4485170;31;34332;-73
2022/01/22 12:25:22;;;;;;;4.18;2.05;;;;;;;1.26;59.12;100236.44;4476159;31;34576;-72
2022/01/22 12:28:10;;;;;;;5.72;1.70;;;;;;;1.51;58.75;100236.19;4487703;31;34812;-72
2022/01/22 12:31:02;;;;;;;3.75;1.45;;;;;;;1.04;58.60;100227.25;4479678;31;35466;-73
2022/01/22 12:33:53;;;;;;;2.92;1.00;;;;;;;1.05;59.37;100243.22;4477694;31;35038;-74
2022/01/22 12:36:41;;;;;;;5.15;2.17;;;;;;;0.93;60.26;100234.28;4489617;31;34631;-73
2022/01/22 12:39:29;;;;;;;9.80;2.80;;;;;;;0.62;61.01;100225.44;4485344;31;35105;-73
2022/01/22 12:42:26;;;;;;;7.57;2.70;;;;;;;0.96;61.97;100227.59;4488857;31;34657;-73
2022/01/22 12:45:12;;;;;;;3.30;1.42;;;;;;;0.88;60.22;100234.16;4475382;31;33901;-72
2022/01/22 12:47:59;;;;;;;3.28;1.40;;;;;;;0.80;59.34;100221.84;4477351;31;35552;-71
2022/01/22 12:50:46;;;;;;;3.28;1.52;;;;;;;0.69;59.60;100233.44;4477183;31;35015;-74
2022/01/22 12:53:34;;;;;;;2.05;1.00;;;;;;;0.76;59.08;100227.94;4479755;31;34157;-72
2022/01/22 12:59:19;;;;;;;1.80;0.73;;;;;;;0.83;57.63;100240.28;4490609;31;35503;-78
2022/01/22 13:02:06;;;;;;;2.72;1.30;;;;;;;1.04;56.88;100254.25;4490203;31;35075;-79
2022/01/22 13:04:59;;;;;;;3.42;1.27;;;;;;;0.93;55.94;100249.66;4477020;31;34598;-77
2022/01/22 13:07:53;;;;;;;4.05;1.58;;;;;;;0.97;56.22;100261.63;4467714;31;33732;-77
2022/01/22 13:10:47;;;;;;;2.37;1.30;;;;;;;0.98;55.17;100263.28;4479460;31;34653;-77
2022/01/22 13:13:36;;;;;;;2.50;1.05;;;;;;;0.83;55.20;100256.44;4479498;31;35002;-77
2022/01/22 13:16:22;;;;;;;2.67;1.25;;;;;;;1.03;55.17;100252.62;4480661;31;34883;-77
2022/01/22 13:19:08;;;;;;;2.40;1.10;;;;;;;1.20;55.76;100264.37;4477891;31;34395;-78
2022/01/22 13:22:00;;;;;;;1.20;0.80;;;;;;;1.26;54.58;100268.81;4488620;31;34711;-78
2022/01/22 13:24:48;;;;;;;4.00;1.77;;;;;;;1.27;53.93;100259.66;4477529;31;34542;-77
2022/01/22 13:27:38;;;;;;;5.18;2.00;;;;;;;0.97;54.04;100257.06;4486375;31;34841;-80
2022/01/22 13:30:37;;;;;;;9.98;1.62;;;;;;;0.90;53.65;100267.13;4475178;31;34090;-77
2022/01/22 13:36:52;;;;;;;2.80;1.15;;;;;;;1.18;53.32;100285.34;4486852;31;35079;-78
2022/01/22 13:48:45;;;;;;;3.25;1.10;;;;;;;1.45;53.58;100307.34;4485153;31;35061;-77
2022/01/22 13:51:32;;;;;;;1.90;0.88;;;;;;;1.08;52.92;100306.69;4462406;31;35512;-78
2022/01/22 13:54:26;;;;;;;5.47;2.30;;;;;;;1.31;53.12;100312.16;4486261;31;33771;-80
2022/01/22 13:57:15;;;;;;;5.50;1.20;;;;;;;1.03;54.65;100309.28;4487125;31;34415;-78
2022/01/22 14:00:17;;;;;;;3.37;1.45;;;;;;;1.12;53.39;100324.09;4478561;31;35937;-78
2022/01/22 14:03:44;;;;;;;4.35;1.75;;;;;;;1.04;53.98;100327.94;4489035;31;34719;-80
2022/01/22 14:06:32;;;;;;;4.00;1.52;;;;;;;1.05;54.09;100339.53;4482743;31;35038;-77
2022/01/22 14:09:20;;;;;;;8.45;3.87;;;;;;;1.08;54.04;100341.78;4478738;31;33002;-76
2022/01/22 14:12:12;;;;;;;8.07;2.20;;;;;;;0.92;54.13;100334.38;4473203;31;34823;-77
2022/01/22 14:15:00;;;;;;;6.82;2.78;;;;;;;0.87;55.58;100337.75;4485915;31;34795;-77
2022/01/22 14:17:58;;;;;;;10.02;3.15;;;;;;;0.84;55.85;100354.41;4472822;31;34418;-76
2022/01/22 14:20:57;;;;;;;8.80;2.78;;;;;;;0.74;56.68;100367.59;4474638;31;34553;-77
2022/01/22 14:23:44;;;;;;;6.40;2.70;;;;;;;0.69;56.33;100379.09;4474846;31;34452;-76
2022/01/22 14:26:34;;;;;;;7.10;2.67;;;;;;;0.53;56.79;100387.78;4487020;31;35139;-76
2022/01/22 14:29:23;;;;;;;5.87;2.10;;;;;;;0.71;56.41;100395.03;4479285;31;34046;-77
2022/01/22 14:32:16;;;;;;;9.15;4.10;;;;;;;0.74;56.04;100397.28;4487600;31;34864;-75
2022/01/22 14:35:18;;;;;;;8.15;3.70;;;;;;;0.72;56.00;100419.09;4490094;31;36039;-76
2022/01/22 14:38:32;;;;;;;10.45;4.87;;;;;;;0.75;55.54;100424.03;4474985;31;33388;-75
2022/01/22 14:44:33;;;;;;;10.02;4.22;;;;;;;0.58;55.81;100448.09;4479839;31;34208;-77
2022/01/22 14:47:22;;;;;;;;;;;;;;;0.68;55.09;100447.56;4485680;31;36047;-78
2022/01/22 14:50:10;;;;;;;10.65;4.70;;;;;;;1.05;55.78;100451.03;4475708;31;35753;-77
2022/01/22 14:52:58;;;;;;;7.55;2.75;;;;;;;0.69;55.64;100454.63;4487953;31;34234;-76
2022/01/22 14:55:49;;;;;;;4.60;2.37;;;;;;;0.74;53.68;100462.84;4474358;31;35544;-76
2022/01/22 14:58:36;;;;;;;6.75;2.87;;;;;;;0.33;54.65;100469.72;4489682;31;35167;-76
2022/01/22 15:01:23;;;;;;;6.12;2.03;;;;;;;0.19;52.42;100471.72;4486097;31;34241;-75
2022/01/22 15:04:09;;;;;;;5.32;1.90;;;;;;;0.13;52.07;100477.19;4484569;31;33961;-75
2022/01/22 15:07:16;;;;;;;5.03;2.05;;;;;;;0.21;52.19;100485.00;4485062;31;35172;-76
2022/01/22 15:10:04;;;;;;;2.87;1.33;;;;;;;0.00;51.74;100480.84;4479083;31;35319;-77
2022/01/22 15:12:51;;;;;;;6.37;2.75;;;;;;;-0.06;51.66;100477.16;4478519;31;33425;-75